Time;durP1;ratioP1;P1;durP2;ratioP2;P2;SDS_P1;SDS_P2;PMS_P1;PMS_P2;Temp;Humidity;BMP_temperature;BMP_pressure;BME280_temperature;BME280_humidity;BME280_pressure;Samples;Min_cycle;Max_cycle;Signal;HPM_P1;HPM_P2
2023/09/04 00:00:56;;;;;;;0.30;0.30;;;24.50;60.30;;;24.85;44.51;95970.81;5013895;28;20278;-32
2023/09/04 00:03:26;;;;;;;0.40;0.40;;;24.50;60.30;;;24.84;44.82;95976.41;5014136;28;20178;-37
2023/09/04 00:05:53;;;;;;;0.32;0.32;;;24.40;60.20;;;24.81;44.73;95972.38;5014005;28;20195;-33
2023/09/04 00:08:20;;;;;;;0.43;0.43;;;24.40;60.20;;;24.82;44.59;95975.88;5013917;28;20270;-33
2023/09/04 00:10:48;;;;;;;0.40;0.40;;;24.40;60.30;;;24.82;44.80;95986.63;5012570;28;20245;-33
2023/09/04 00:13:17;;;;;;;0.60;0.60;;;24.40;60.10;;;24.81;44.58;95976.94;5013863;28;20194;-35
2023/09/04 00:15:44;;;;;;;0.50;0.50;;;24.40;60.20;;;24.80;44.62;95981.47;5013065;28;20298;-34
2023/09/04 00:18:13;;;;;;;0.40;0.40;;;24.40;60.20;;;24.78;44.52;95978.25;5014324;28;20247;-32
2023/09/04 00:20:40;;;;;;;0.30;0.30;;;24.40;60.20;;;24.77;44.72;95982.00;5013402;28;20237;-35
2023/09/04 00:23:07;;;;;;;0.40;0.40;;;24.40;60.20;;;24.74;44.76;95983.34;5013633;28;20213;-35
2023/09/04 00:25:34;;;;;;;0.40;0.40;;;24.40;60.20;;;24.74;44.80;95985.19;5013519;28;20281;-35
2023/09/04 00:28:03;;;;;;;0.30;0.30;;;24.40;60.30;;;24.72;44.51;95988.13;5012417;28;20205;-32
2023/09/04 00:30:30;;;;;;;0.40;0.40;;;24.40;60.20;;;24.69;44.64;95980.59;5013505;28;20298;-34
2023/09/04 00:32:57;;;;;;;0.30;0.30;;;24.30;60.20;;;24.69;44.91;95985.94;5013430;28;20691;-36
2023/09/04 00:35:25;;;;;;;0.50;0.50;;;24.30;60.10;;;24.68;44.67;95988.91;5013203;28;20585;-35
2023/09/04 00:37:52;;;;;;;0.40;0.40;;;24.30;60.20;;;24.67;44.75;95989.94;5013171;28;20202;-33
2023/09/04 00:40:19;;;;;;;0.50;0.50;;;24.30;60.20;;;24.66;44.68;95999.06;5013065;28;20312;-34
2023/09/04 00:42:46;;;;;;;0.32;0.32;;;24.30;60.20;;;24.64;44.80;95996.59;5012831;28;20291;-35
2023/09/04 00:45:13;;;;;;;0.30;0.30;;;24.30;60.20;;;24.62;44.77;95996.88;5013100;28;20288;-35
2023/09/04 00:47:45;;;;;;;0.30;0.30;;;24.30;60.10;;;24.60;44.53;95992.84;5013069;28;20640;-33
2023/09/04 00:50:21;;;;;;;0.40;0.40;;;24.30;60.20;;;24.58;44.77;95990.41;5013178;28;20191;-32
2023/09/04 00:52:59;;;;;;;0.32;0.32;;;24.20;60.10;;;24.56;44.81;95997.91;5013085;28;20212;-33
2023/09/04 00:55:27;;;;;;;0.38;0.38;;;24.20;60.10;;;24.57;44.77;95999.50;4995870;28;20257;-34
2023/09/04 00:57:54;;;;;;;0.40;0.40;;;24.20;60.10;;;24.56;44.83;95991.69;5012856;28;20633;-33
2023/09/04 01:00:23;;;;;;;0.40;0.40;;;24.20;60.20;;;24.55;44.45;95990.09;5011903;28;20241;-35
2023/09/04 01:02:51;;;;;;;0.30;0.30;;;24.20;60.10;;;24.53;44.83;95990.34;4995808;28;20214;-36
2023/09/04 01:05:18;;;;;;;0.40;0.40;;;24.20;60.20;;;24.54;44.83;95985.81;5012018;28;20196;-32
2023/09/04 01:07:46;;;;;;;0.30;0.30;;;24.20;60.20;;;24.52;44.68;95980.66;5011855;28;20591;-32
2023/09/04 01:10:14;;;;;;;0.45;0.45;;;24.10;60.20;;;24.53;44.80;95984.19;5011798;28;20215;-34
2023/09/04 01:12:58;;;;;;;0.40;0.40;;;24.10;60.10;;;24.48;44.70;95979.56;4995581;28;20262;-37
2023/09/04 01:15:27;;;;;;;0.35;0.35;;;24.10;60.10;;;24.48;44.69;95976.88;5011758;28;20206;-33
2023/09/04 01:17:53;;;;;;;0.40;0.40;;;24.10;60.10;;;24.45;44.91;95980.09;5011816;28;20251;-33
2023/09/04 01:20:29;;;;;;;0.30;0.30;;;24.10;60.10;;;24.42;44.73;95978.69;5013360;28;20225;-37
2023/09/04 01:22:58;;;;;;;0.40;0.40;;;24.10;60.10;;;24.42;44.84;95977.91;5011733;28;20205;-35
2023/09/04 01:25:52;;;;;;;0.30;0.30;;;24.10;60.10;;;24.40;44.85;95980.84;5011849;28;20685;-32
2023/09/04 01:28:55;;;;;;;0.40;0.40;;;24.10;60.20;;;24.39;44.77;95971.19;5011963;28;20190;-32
2023/09/04 01:31:29;;;;;;;0.30;0.30;;;24.10;60.20;;;24.41;44.74;95976.28;5019515;28;20206;-31
2023/09/04 01:34:21;;;;;;;0.40;0.40;;;24.10;60.20;;;24.40;44.92;95985.38;5012996;28;20186;-33
2023/09/04 01:36:51;;;;;;;0.30;0.30;;;24.00;60.10;;;24.39;44.65;95981.09;5011517;28;20213;-34
2023/09/04 01:39:21;;;;;;;0.47;0.47;;;24.00;60.10;;;24.37;44.72;95983.22;5012375;28;20216;-33
2023/09/04 01:41:48;;;;;;;0.30;0.30;;;24.10;60.10;;;24.37;44.77;95991.28;5012202;28;20221;-32
2023/09/04 01:44:15;;;;;;;0.40;0.40;;;24.00;60.10;;;24.37;44.83;95988.59;4995259;28;20280;-37
2023/09/04 01:46:42;;;;;;;0.30;0.30;;;24.00;60.20;;;24.37;44.82;95983.22;5011258;28;20636;-32
2023/09/04 01:49:09;;;;;;;0.30;0.30;;;24.10;60.30;;;24.38;44.80;95991.00;5011276;28;20220;-32
2023/09/04 01:51:36;;;;;;;0.30;0.30;;;24.00;60.10;;;24.37;45.07;95994.75;5011292;28;20296;-33
2023/09/04 01:54:04;;;;;;;0.40;0.40;;;24.00;60.20;;;24.38;44.83;95996.38;5011206;28;20240;-36
2023/09/04 01:56:32;;;;;;;0.40;0.40;;;24.00;60.20;;;24.38;44.96;95988.34;5012137;28;20244;-36
2023/09/04 01:58:59;;;;;;;0.30;0.30;;;24.00;60.20;;;24.39;44.76;95997.16;5012005;28;20263;-36
2023/09/04 02:01:26;;;;;;;0.40;0.40;;;24.00;60.20;;;24.38;44.86;96001.72;4994945;28;20249;-31
2023/09/04 02:03:55;;;;;;;0.30;0.30;;;24.00;60.20;;;24.38;44.61;95995.56;5011024;28;20202;-33
2023/09/04 02:06:24;;;;;;;0.30;0.30;;;24.00;60.20;;;24.38;44.71;95990.22;4995522;28;20621;-33
2023/09/04 02:08:55;;;;;;;0.40;0.40;;;24.00;60.10;;;24.35;44.67;95990.72;5012262;28;20271;-32
2023/09/04 02:11:22;;;;;;;0.40;0.40;;;24.00;60.10;;;24.35;44.84;95991.53;5011939;28;20205;-35
2023/09/04 02:13:49;;;;;;;0.32;0.32;;;24.00;60.10;;;24.34;44.54;95991.75;5012554;28;20204;-33
2023/09/04 02:16:16;;;;;;;0.40;0.40;;;24.00;60.20;;;24.33;44.75;95988.28;5010769;28;20208;-33
2023/09/04 02:18:43;;;;;;;0.30;0.30;;;24.00;60.10;;;24.33;44.79;96000.88;5011176;28;20200;-33
2023/09/04 02:21:10;;;;;;;0.32;0.32;;;24.00;60.10;;;24.30;44.60;96003.00;5011778;28;20222;-33
2023/09/04 02:23:37;;;;;;;0.40;0.40;;;24.00;60.10;;;24.26;44.78;95993.84;5012138;28;20268;-37
2023/09/04 02:26:05;;;;;;;0.40;0.40;;;24.00;61.00;;;24.26;44.49;95993.03;5012003;28;20626;-36
2023/09/04 02:28:32;;;;;;;0.30;0.30;;;24.00;60.00;;;24.25;44.47;95994.09;5011992;28;20688;-35
2023/09/04 02:31:07;;;;;;;0.40;0.40;;;24.00;59.90;;;24.20;44.57;95989.47;5011965;28;20232;-34
2023/09/04 02:33:35;;;;;;;0.60;0.60;;;23.90;59.90;;;24.19;44.57;95993.22;5012594;28;20220;-35
2023/09/04 02:36:02;;;;;;;0.40;0.40;;;23.90;59.90;;;24.16;44.57;95995.59;5012533;28;20205;-32
2023/09/04 02:38:29;;;;;;;0.30;0.30;;;23.80;59.80;;;24.14;44.41;95995.84;5014019;28;20677;-35
2023/09/04 02:40:56;;;;;;;0.40;0.40;;;23.90;59.90;;;24.13;44.64;95994.22;5013998;28;20222;-37
2023/09/04 02:43:23;;;;;;;0.30;0.30;;;23.90;60.00;;;24.14;44.55;95987.81;5013916;28;20218;-32
2023/09/04 02:45:52;;;;;;;0.40;0.40;;;23.80;59.90;;;24.12;44.63;95988.06;5014224;28;20229;-34
2023/09/04 02:48:19;;;;;;;0.40;0.40;;;23.80;60.00;;;24.12;44.81;95988.06;5015272;28;20188;-34
2023/09/04 02:50:46;;;;;;;0.43;0.43;;;23.80;59.90;;;24.11;44.75;95986.44;5014822;28;20254;-33
2023/09/04 02:53:13;;;;;;;0.30;0.30;;;23.80;60.00;;;24.10;44.76;95982.13;5014830;28;20237;-35
2023/09/04 02:55:46;;;;;;;0.43;0.43;;;23.80;60.10;;;24.12;44.82;95976.53;5013848;28;20696;-34
2023/09/04 02:58:13;;;;;;;0.40;0.40;;;23.80;60.20;;;24.12;44.74;95974.66;5013860;28;20663;-33
2023/09/04 03:00:41;;;;;;;0.30;0.30;;;23.70;60.00;;;24.12;44.82;95973.84;5014695;28;20608;-35
2023/09/04 03:03:08;;;;;;;0.30;0.30;;;23.80;60.10;;;24.11;44.68;95977.59;5014017;28;20209;-34
2023/09/04 03:05:35;;;;;;;0.30;0.30;;;23.80;60.10;;;24.11;44.67;95981.09;5014802;28;20576;-34
2023/09/04 03:08:02;;;;;;;0.30;0.30;;;23.80;60.00;;;24.11;44.63;95975.72;5014583;28;20342;-32
2023/09/04 03:10:33;;;;;;;0.40;0.40;;;23.70;59.90;;;24.11;44.84;95977.59;5013672;28;20287;-38
2023/09/04 03:13:00;;;;;;;0.30;0.30;;;23.80;60.10;;;24.10;44.77;95974.09;5014773;28;20642;-32
2023/09/04 03:15:28;;;;;;;0.30;0.30;;;23.70;60.00;;;24.11;44.88;95988.34;5013547;28;20212;-35
2023/09/04 03:17:55;;;;;;;0.40;0.40;;;23.70;59.90;;;24.11;44.77;95988.34;5014344;28;20266;-32
2023/09/04 03:20:23;;;;;;;0.43;0.43;;;23.80;60.10;;;24.10;44.74;95984.03;5013719;28;20277;-35
2023/09/04 03:22:53;;;;;;;0.50;0.50;;;23.70;59.90;;;24.09;44.75;95985.88;5014115;28;20277;-31
2023/09/04 03:25:20;;;;;;;0.30;0.30;;;23.70;60.00;;;24.11;44.86;95982.97;5013389;28;20202;-38
2023/09/04 03:27:47;;;;;;;0.30;0.30;;;23.70;60.00;;;24.09;44.65;95990.44;5013387;28;20202;-33
2023/09/04 03:30:17;;;;;;;0.40;0.40;;;23.80;60.00;;;24.08;44.67;95991.50;5014235;28;20215;-34
2023/09/04 03:32:44;;;;;;;0.40;0.40;;;23.70;60.00;;;24.08;44.87;95991.50;5013464;28;20219;-33
2023/09/04 03:35:16;;;;;;;0.30;0.30;;;23.70;59.90;;;24.09;44.67;95993.13;5014225;28;20657;-32
2023/09/04 03:37:44;;;;;;;0.28;0.28;;;23.70;60.00;;;24.07;44.63;95992.56;5099635;28;20258;-35
2023/09/04 03:40:22;;;;;;;0.30;0.30;;;23.70;59.90;;;24.05;44.68;95998.16;5014036;28;20601;-35
2023/09/04 03:42:50;;;;;;;0.40;0.40;;;23.70;60.00;;;24.05;44.72;95995.50;5013189;28;20189;-33
2023/09/04 03:45:18;;;;;;;0.38;0.38;;;23.80;60.00;;;24.05;44.56;96002.72;5013109;28;20547;-34
2023/09/04 03:47:47;;;;;;;0.50;0.50;;;23.70;60.00;;;24.04;44.50;95999.22;5013973;28;20248;-34
2023/09/04 03:50:14;;;;;;;0.40;0.40;;;23.70;60.00;;;24.03;44.62;96000.28;5012052;28;20197;-35
2023/09/04 03:52:42;;;;;;;0.30;0.30;;;23.70;60.00;;;24.02;44.67;95987.16;5012871;28;20201;-32
2023/09/04 03:55:11;;;;;;;0.50;0.50;;;23.70;60.00;;;24.03;44.81;95980.72;5014179;28;20192;-32
2023/09/04 03:57:42;;;;;;;0.30;0.30;;;23.70;60.90;;;24.00;44.70;95982.03;5013869;28;20193;-33
2023/09/04 04:00:16;;;;;;;0.40;0.40;;;23.70;59.90;;;24.00;44.54;95991.94;4997453;28;20201;-34
2023/09/04 04:02:47;;;;;;;0.50;0.50;;;23.70;60.00;;;23.97;44.71;95995.94;5012758;28;20194;-38
2023/09/04 04:05:17;;;;;;;0.40;0.40;;;23.70;59.90;;;23.94;44.57;95991.09;5013017;28;20198;-35
2023/09/04 04:07:44;;;;;;;0.40;0.40;;;23.70;59.90;;;23.92;44.40;95994.00;5013646;28;20526;-33
2023/09/04 04:10:12;;;;;;;0.50;0.50;;;23.70;59.90;;;23.92;44.53;95991.31;5013682;28;20198;-33
2023/09/04 04:12:39;;;;;;;0.32;0.32;;;23.70;59.90;;;23.91;44.65;96004.94;5013500;28;20185;-32
2023/09/04 04:15:08;;;;;;;0.30;0.30;;;23.60;59.70;;;23.87;44.64;96007.31;5012934;28;20215;-33
2023/09/04 04:17:36;;;;;;;0.40;0.40;;;23.60;59.70;;;23.87;44.73;96001.16;5013496;28;20239;-37
2023/09/04 04:20:12;;;;;;;0.38;0.38;;;23.60;59.80;;;23.84;44.61;96005.13;5099038;28;20205;-36
2023/09/04 04:22:42;;;;;;;0.30;0.30;;;23.60;59.70;;;23.84;44.50;96005.13;5028269;28;20196;-36
2023/09/04 04:25:10;;;;;;;0.47;0.47;;;23.60;59.80;;;23.81;44.58;96001.09;5014072;28;20173;-34
2023/09/04 04:27:38;;;;;;;0.50;0.50;;;23.60;59.70;;;23.79;44.65;95999.69;5013676;28;20203;-33
2023/09/04 04:30:08;;;;;;;0.38;0.38;;;23.50;59.70;;;23.76;44.66;96006.38;5012422;28;20196;-37
2023/09/04 04:32:36;;;;;;;0.35;0.35;;;23.50;59.60;;;23.73;44.53;96003.38;5012272;28;20213;-38
2023/09/04 04:35:04;;;;;;;0.30;0.30;;;23.50;59.70;;;23.72;44.54;96009.81;5013281;28;20197;-37
2023/09/04 04:37:31;;;;;;;0.40;0.40;;;23.50;59.70;;;23.67;44.72;96014.03;5013209;28;20624;-33
2023/09/04 04:40:03;;;;;;;0.30;0.30;;;23.50;59.80;;;23.67;44.64;96021.25;5013450;28;20243;-34
2023/09/04 04:42:31;;;;;;;0.30;0.30;;;23.50;60.70;;;23.66;44.81;96012.41;5013406;28;20301;-33
2023/09/04 04:45:00;;;;;;;0.40;0.40;;;23.50;59.90;;;23.66;44.66;96023.13;5012431;28;20214;-36
2023/09/04 04:47:27;;;;;;;0.40;0.40;;;23.40;59.80;;;23.64;44.75;96035.97;4995946;28;20211;-34
2023/09/04 04:49:55;;;;;;;0.30;0.30;;;23.40;59.90;;;23.66;44.79;96052.56;5012141;28;20201;-34
2023/09/04 04:52:22;;;;;;;0.40;0.40;;;23.40;60.00;;;23.66;44.77;96062.50;5013015;28;20548;-33
2023/09/04 04:54:50;;;;;;;0.43;0.43;;;23.40;59.90;;;23.66;44.76;96071.34;5012170;28;20196;-32
2023/09/04 04:57:17;;;;;;;0.40;0.40;;;23.40;60.00;;;23.67;45.00;96082.88;5013262;28;20246;-36
2023/09/04 04:59:45;;;;;;;0.40;0.40;;;23.40;60.00;;;23.67;45.00;96072.97;5012754;28;20205;-32
2023/09/04 05:02:17;;;;;;;0.40;0.40;;;23.40;60.10;;;23.69;45.10;96071.91;5011855;28;20318;-34
2023/09/04 05:04:45;;;;;;;0.30;0.30;;;23.40;60.10;;;23.70;44.76;96077.00;5012994;28;20253;-35
2023/09/04 05:07:15;;;;;;;0.40;0.40;;;23.40;60.90;;;23.72;45.05;96068.75;5011902;28;20193;-35
2023/09/04 05:09:42;;;;;;;0.40;0.40;;;23.40;60.10;;;23.73;44.83;96073.03;5011868;28;20205;-36
2023/09/04 05:12:09;;;;;;;0.30;0.30;;;23.40;60.10;;;23.74;44.86;96080.00;5012005;28;20207;-35
2023/09/04 05:14:37;;;;;;;0.40;0.40;;;23.40;60.10;;;23.74;45.03;96075.47;5011646;28;20202;-37
2023/09/04 05:17:04;;;;;;;0.30;0.30;;;23.50;60.20;;;23.75;44.87;96070.91;5011542;28;20253;-36
2023/09/04 05:19:33;;;;;;;0.30;0.30;;;23.50;60.10;;;23.74;45.07;96075.47;5011668;28;20538;-37
2023/09/04 05:22:00;;;;;;;0.32;0.32;;;23.50;60.20;;;23.74;44.85;96080.00;5012797;28;20315;-38
2023/09/04 05:24:27;;;;;;;0.30;0.30;;;23.50;60.10;;;23.74;45.13;96080.84;5011663;28;20532;-36
2023/09/04 05:26:55;;;;;;;0.40;0.40;;;23.50;60.10;;;23.74;44.94;96085.34;4995500;28;20204;-37
2023/09/04 05:29:23;;;;;;;0.30;0.30;;;23.50;60.10;;;23.74;44.94;96098.75;5012721;28;20284;-36
2023/09/04 05:31:51;;;;;;;0.30;0.30;;;23.50;60.20;;;23.77;45.03;96106.31;5012405;28;20645;-37
2023/09/04 05:34:19;;;;;;;0.40;0.40;;;23.50;60.30;;;23.78;45.13;96097.22;5012939;28;20201;-33
2023/09/04 05:36:46;;;;;;;0.30;0.30;;;23.50;60.30;;;23.78;45.16;96084.63;5011443;28;20200;-36
2023/09/04 05:39:14;;;;;;;0.50;0.50;;;23.50;60.20;;;23.77;44.87;96080.31;5012599;28;20258;-36
2023/09/04 05:41:42;;;;;;;0.38;0.38;;;23.50;60.10;;;23.72;44.89;96077.59;5012254;28;20274;-35
2023/09/04 05:44:09;;;;;;;0.43;0.43;;;23.50;59.90;;;23.66;44.70;96073.22;5012558;28;20197;-34
2023/09/04 05:46:36;;;;;;;0.40;0.40;;;23.50;59.90;;;23.64;45.08;96086.84;5012261;28;20285;-35
2023/09/04 05:49:04;;;;;;;0.50;0.50;;;23.50;60.00;;;23.67;44.99;96096.25;5012514;28;20201;-36
2023/09/04 05:51:31;;;;;;;0.40;0.40;;;23.50;60.10;;;23.65;45.23;96093.81;5011624;28;20196;-37
2023/09/04 05:53:58;;;;;;;0.30;0.30;;;23.50;60.20;;;23.68;45.18;96095.22;5012170;28;20213;-32
2023/09/04 05:56:27;;;;;;;0.30;0.30;;;23.40;60.10;;;23.67;44.94;96085.56;5012118;28;20231;-36
2023/09/04 05:58:56;;;;;;;0.30;0.30;;;23.40;60.00;;;23.65;44.86;96077.75;5012131;28;20205;-36
2023/09/04 06:01:24;;;;;;;0.38;0.38;;;23.40;60.00;;;23.63;44.99;96084.41;5012227;28;20214;-38
2023/09/04 06:03:51;;;;;;;0.32;0.32;;;23.40;60.10;;;23.62;44.79;96082.78;5011975;28;20198;-33
2023/09/04 06:06:18;;;;;;;0.40;0.40;;;23.40;59.90;;;23.61;45.03;96081.97;5012582;28;20276;-33
2023/09/04 06:08:45;;;;;;;0.40;0.40;;;23.40;60.00;;;23.62;45.06;96077.41;5012239;28;20216;-36
2023/09/04 06:11:13;;;;;;;0.40;0.40;;;23.40;60.10;;;23.61;44.74;96071.25;5012076;28;20211;-35
2023/09/04 06:13:40;;;;;;;0.30;0.30;;;23.40;60.10;;;23.60;44.82;96069.63;5014565;28;20223;-34
2023/09/04 06:16:07;;;;;;;0.30;0.30;;;23.40;60.10;;;23.59;44.89;96065.34;5015729;28;20218;-34
2023/09/04 06:18:35;;;;;;;0.40;0.40;;;23.40;60.00;;;23.58;44.92;96071.78;5015190;28;20254;-33
2023/09/04 06:21:02;;;;;;;0.40;0.40;;;23.40;60.00;;;23.59;45.00;96076.03;5015267;28;20273;-35
2023/09/04 06:23:29;;;;;;;0.40;0.40;;;23.40;60.00;;;23.60;45.08;96071.53;5015106;28;20253;-36
2023/09/04 06:25:56;;;;;;;0.30;0.30;;;23.40;60.20;;;23.61;44.93;96067.78;5015510;28;20690;-33
2023/09/04 06:28:23;;;;;;;0.30;0.30;;;23.40;60.00;;;23.61;44.72;96063.22;5014198;28;20564;-34
2023/09/04 06:30:51;;;;;;;0.40;0.40;;;23.40;60.10;;;23.62;44.79;96069.38;5015352;28;20275;-37
2023/09/04 06:33:19;;;;;;;0.40;0.40;;;23.40;60.10;;;23.63;44.91;96063.81;5015178;28;20199;-33
2023/09/04 06:35:47;;;;;;;0.30;0.30;;;23.40;60.10;;;23.63;44.73;96065.66;5015470;28;20209;-32
2023/09/04 06:38:14;;;;;;;0.40;0.40;;;23.40;60.10;;;23.65;45.03;96072.38;5015242;28;20621;-32
2023/09/04 06:40:42;;;;;;;0.40;0.40;;;23.40;60.10;;;23.66;45.19;96071.34;5014175;28;20190;-36
2023/09/04 06:43:10;;;;;;;0.45;0.45;;;23.40;60.20;;;23.70;45.15;96070.84;5015390;28;20217;-31
2023/09/04 06:45:37;;;;;;;0.30;0.30;;;23.40;60.20;;;23.71;44.89;96067.13;5015106;28;20198;-32
2023/09/04 06:48:07;;;;;;;0.30;0.30;;;23.40;60.20;;;23.72;44.95;96071.41;5015295;28;20655;-32
2023/09/04 06:50:34;;;;;;;0.40;0.40;;;23.50;60.10;;;23.74;45.18;96077.31;5015449;28;20199;-33
2023/09/04 06:53:02;;;;;;;0.40;0.40;;;23.40;60.20;;;23.75;45.26;96078.94;5015079;28;20288;-35
2023/09/04 06:55:28;;;;;;;0.30;0.30;;;23.50;60.40;;;23.79;45.31;96088.94;5015691;28;20198;-32
2023/09/04 06:57:56;;;;;;;0.30;0.30;;;23.50;60.40;;;23.83;45.40;96092.72;5015032;28;20247;-33
2023/09/04 07:00:23;;;;;;;0.30;0.30;;;23.50;60.50;;;23.86;45.43;96091.41;5014751;28;20213;-32
2023/09/04 07:02:50;;;;;;;0.30;0.30;;;23.50;60.50;;;23.88;45.36;96083.94;5014891;28;20593;-31
2023/09/04 07:05:17;;;;;;;0.30;0.30;;;23.60;60.50;;;23.92;45.42;96090.47;5014838;28;20204;-35
2023/09/04 07:07:47;;;;;;;0.30;0.30;;;23.60;60.50;;;23.96;45.44;96090.78;5014564;28;20228;-34
2023/09/04 07:10:15;;;;;;;0.30;0.30;;;23.60;60.40;;;23.99;45.38;96090.28;5014866;28;20253;-33
2023/09/04 07:12:42;;;;;;;0.30;0.30;;;23.70;60.50;;;24.02;45.32;96086.31;5014510;28;20285;-32
2023/09/04 07:15:09;;;;;;;0.30;0.30;;;23.70;60.30;;;24.04;45.54;96097.59;5014405;28;20205;-34
2023/09/04 07:17:36;;;;;;;0.35;0.35;;;23.70;60.30;;;24.06;45.24;96100.81;5014612;28;20597;-35
2023/09/04 07:20:05;;;;;;;0.40;0.40;;;23.70;60.30;;;24.09;45.72;96105.69;5014666;28;20264;-33
2023/09/04 07:22:32;;;;;;;0.32;0.32;;;23.80;60.30;;;24.10;45.56;96108.13;5014324;28;20206;-33
2023/09/04 07:24:59;;;;;;;0.35;0.35;;;23.80;60.30;;;24.13;45.25;96112.16;5012039;28;20273;-35
2023/09/04 07:27:27;;;;;;;0.30;0.30;;;23.90;60.40;;;24.15;45.47;96104.69;5013511;28;20274;-32
2023/09/04 07:29:54;;;;;;;0.30;0.30;;;23.90;60.40;;;24.17;45.09;96099.06;5014273;28;20211;-33
2023/09/04 07:32:22;;;;;;;0.30;0.30;;;23.90;60.30;;;24.18;45.18;96088.13;5014236;28;20198;-37
2023/09/04 07:34:49;;;;;;;0.35;0.35;;;23.90;60.20;;;24.22;45.31;96093.81;5014475;28;20192;-31
2023/09/04 07:37:16;;;;;;;0.35;0.35;;;23.90;60.20;;;24.23;45.05;96100.75;5013307;28;20236;-34
2023/09/04 07:39:43;;;;;;;0.30;0.30;;;24.00;60.20;;;24.23;45.17;96104.28;5014578;28;20512;-35
2023/09/04 07:42:12;;;;;;;0.40;0.40;;;24.00;60.20;;;24.25;45.06;96110.16;5014305;28;20310;-33
2023/09/04 07:44:39;;;;;;;0.57;0.57;;;24.00;60.20;;;24.27;45.19;96113.41;5013981;28;20281;-37
2023/09/04 07:47:06;;;;;;;0.40;0.40;;;24.00;60.20;;;24.29;44.89;96113.16;5014572;28;20600;-33
2023/09/04 07:49:33;;;;;;;0.30;0.30;;;24.00;60.10;;;24.30;45.07;96104.06;5013944;28;20250;-34
2023/09/04 07:52:00;;;;;;;0.40;0.40;;;24.00;60.10;;;24.33;45.20;96098.22;5013051;28;20585;-33
2023/09/04 07:54:27;;;;;;;0.30;0.30;;;24.00;60.10;;;24.34;44.80;96099.00;5013964;28;20337;-33
2023/09/04 07:56:54;;;;;;;0.40;0.40;;;24.10;60.10;;;24.35;44.93;96104.16;5013273;28;20562;-33
2023/09/04 07:59:21;;;;;;;0.30;0.30;;;24.10;60.10;;;24.36;45.04;96099.59;5013809;28;20615;-35
2023/09/04 08:01:49;;;;;;;0.40;0.40;;;24.10;60.10;;;24.39;44.88;96093.69;5013706;28;20275;-36
2023/09/04 08:04:16;;;;;;;0.30;0.30;;;24.10;60.10;;;24.39;44.63;96091.84;5013714;28;20623;-34
2023/09/04 08:06:43;;;;;;;0.30;0.30;;;24.10;60.00;;;24.41;45.06;96100.47;5013720;28;20597;-32
2023/09/04 08:09:10;;;;;;;0.30;0.30;;;24.10;60.00;;;24.44;44.87;96091.09;5013766;28;20551;-34
2023/09/04 08:11:37;;;;;;;0.30;0.30;;;24.20;60.10;;;24.45;44.76;96090.84;5013654;28;20504;-36
2023/09/04 08:14:04;;;;;;;0.30;0.30;;;24.20;60.00;;;24.48;44.74;96096.78;5012545;28;20217;-31
2023/09/04 08:16:31;;;;;;;0.30;0.30;;;24.20;60.00;;;24.49;44.72;96098.41;5013412;28;20227;-34
2023/09/04 08:18:58;;;;;;;0.40;0.40;;;24.20;60.00;;;24.51;44.67;96089.03;5013768;28;20208;-35
2023/09/04 08:21:25;;;;;;;0.22;0.22;;;24.20;60.00;;;24.53;44.64;96091.47;5013428;28;20234;-34
2023/09/04 08:23:52;;;;;;;0.32;0.32;;;24.30;60.00;;;24.54;44.69;96088.53;5013475;28;20290;-32
2023/09/04 08:26:20;;;;;;;0.30;0.30;;;24.30;60.00;;;24.56;44.65;96090.94;5013339;28;20194;-33
2023/09/04 08:28:47;;;;;;;0.30;0.30;;;24.30;59.90;;;24.58;44.62;96094.19;5013639;28;20206;-32
2023/09/04 08:31:14;;;;;;;0.38;0.38;;;24.30;59.90;;;24.61;44.66;96099.06;5013395;28;20247;-36
2023/09/04 08:33:41;;;;;;;0.50;0.50;;;24.30;59.70;;;24.62;44.65;96104.16;5013338;28;20277;-31
2023/09/04 08:36:08;;;;;;;0.30;0.30;;;24.30;59.90;;;24.66;44.57;96103.69;5012993;28;20313;-33
2023/09/04 08:38:35;;;;;;;0.40;0.40;;;24.30;59.80;;;24.67;44.72;96108.81;5012274;28;20643;-35
2023/09/04 08:41:09;;;;;;;0.30;0.30;;;24.40;59.90;;;24.68;44.72;96105.09;5013189;28;20202;-34
2023/09/04 08:43:40;;;;;;;0.40;0.40;;;24.40;60.00;;;24.69;44.19;96101.31;5013401;28;20206;-33
2023/09/04 08:46:07;;;;;;;0.50;0.50;;;24.40;60.00;;;24.72;44.44;96108.06;5013822;28;20227;-34
2023/09/04 08:48:42;;;;;;;0.40;0.40;;;24.40;59.90;;;24.72;44.42;96106.19;5013130;28;20191;-33
2023/09/04 08:51:09;;;;;;;0.40;0.40;;;24.40;59.90;;;24.75;44.74;96099.50;5013648;28;20631;-37
2023/09/04 08:53:36;;;;;;;0.35;0.35;;;24.40;59.60;;;24.77;44.45;96111.59;5013243;28;20208;-33
2023/09/04 08:56:07;;;;;;;0.30;0.30;;;24.40;59.70;;;24.78;44.48;96113.22;4996598;28;20232;-35
2023/09/04 08:58:34;;;;;;;0.40;0.40;;;24.50;59.90;;;24.81;44.38;96105.75;5012392;28;20213;-34
2023/09/04 09:01:03;;;;;;;0.30;0.30;;;24.50;60.00;;;24.82;44.47;96108.16;5012908;28;20233;-33
2023/09/04 09:03:31;;;;;;;0.30;0.30;;;24.50;59.90;;;24.83;44.11;96101.72;5012243;28;20301;-34
2023/09/04 09:05:59;;;;;;;0.50;0.50;;;24.50;59.80;;;24.83;44.36;96093.69;5013036;28;20498;-34
2023/09/04 09:08:29;;;;;;;0.50;0.50;;;24.50;59.60;;;24.87;44.20;96091.31;5011915;28;20599;-35
2023/09/04 09:10:56;;;;;;;0.32;0.32;;;24.50;59.60;;;24.89;44.19;96092.66;5012259;28;20297;-34
2023/09/04 09:13:23;;;;;;;0.50;0.50;;;24.50;59.60;;;24.89;44.15;96084.63;5011988;28;20194;-34
2023/09/04 09:15:50;;;;;;;0.30;0.30;;;24.60;59.70;;;24.92;44.10;96088.66;5012860;28;20195;-37
2023/09/04 09:18:38;;;;;;;0.30;0.30;;;24.60;59.60;;;24.91;43.84;96089.72;5011810;28;20244;-35
2023/09/04 09:21:25;;;;;;;0.22;0.22;;;24.60;59.40;;;24.90;43.91;96094.28;5013209;28;20196;-36
2023/09/04 09:24:18;;;;;;;0.30;0.30;;;24.60;59.30;;;24.89;44.13;96092.66;5012726;28;20260;-32
2023/09/04 09:26:49;;;;;;;0.38;0.38;;;24.60;59.20;;;24.92;44.13;96099.41;5011664;28;20218;-33
2023/09/04 09:29:18;;;;;;;0.50;0.50;;;24.60;59.50;;;24.92;44.10;96097.50;5012752;28;20265;-32
2023/09/04 09:31:46;;;;;;;0.30;0.30;;;24.60;59.20;;;24.94;43.61;96098.06;5012783;28;20206;-33
2023/09/04 09:34:14;;;;;;;0.20;0.20;;;24.60;59.10;;;24.97;43.91;96090.59;5012700;28;20199;-32
2023/09/04 09:36:41;;;;;;;0.38;0.38;;;24.60;59.30;;;24.99;43.74;96097.31;5012589;28;20192;-32
2023/09/04 09:39:08;;;;;;;0.20;0.20;;;24.60;59.40;;;25.00;43.81;96093.56;5012597;28;20203;-34
2023/09/04 09:41:37;;;;;;;0.43;0.43;;;24.60;59.50;;;25.02;44.14;96096.00;5012244;28;20202;-32
2023/09/04 09:44:04;;;;;;;0.45;0.45;;;24.60;59.40;;;25.04;43.98;96092.00;5012622;28;20228;-35
2023/09/04 09:46:37;;;;;;;0.30;0.30;;;24.70;59.70;;;25.05;43.95;96088.25;5011690;28;20565;-37
2023/09/04 09:49:06;;;;;;;0.30;0.30;;;24.70;59.60;;;25.07;43.92;96083.44;5007997;28;20250;-35
2023/09/04 09:51:37;;;;;;;0.32;0.32;;;24.70;60.60;;;25.10;44.00;96084.81;4992869;28;20191;-32
2023/09/04 09:54:05;;;;;;;0.30;0.30;;;24.70;59.60;;;25.10;43.88;96076.75;4992937;28;20336;-32
2023/09/04 09:56:33;;;;;;;0.40;0.40;;;24.70;59.40;;;25.12;43.95;96081.84;4992759;28;20288;-34
2023/09/04 09:59:01;;;;;;;0.30;0.30;;;24.70;59.20;;;25.12;43.38;96080.00;4993100;28;20209;-33
2023/09/04 10:01:31;;;;;;;0.30;0.30;;;24.70;59.30;;;25.14;43.93;96079.72;5007935;28;20312;-33
2023/09/04 10:04:00;;;;;;;0.40;0.40;;;24.80;59.30;;;25.16;43.75;96072.22;4992553;28;20257;-37
2023/09/04 10:06:34;;;;;;;0.50;0.50;;;24.80;59.40;;;25.18;43.77;96070.91;4992486;28;20279;-35
2023/09/04 10:09:06;;;;;;;0.40;0.40;;;24.80;59.00;;;25.19;43.66;96071.72;4992874;28;20184;-34
2023/09/04 10:11:35;;;;;;;0.32;0.32;;;24.80;59.20;;;25.20;43.45;96071.44;4992752;28;20230;-36
2023/09/04 10:14:11;;;;;;;0.30;0.30;;;24.80;59.30;;;25.22;43.76;96066.63;4991579;28;20199;-35
2023/09/04 10:16:47;;;;;;;0.20;0.20;;;24.80;60.40;;;25.24;44.02;96061.81;4992226;28;20256;-34
2023/09/04 10:19:17;;;;;;;0.30;0.30;;;24.90;60.40;;;25.25;43.64;96062.63;4992356;28;20207;-34
2023/09/04 10:21:53;;;;;;;0.30;0.30;;;24.90;59.40;;;25.27;43.66;96055.13;4991740;28;20289;-36
2023/09/04 10:24:30;;;;;;;0.50;0.50;;;24.90;59.40;;;25.29;43.69;96061.03;4991425;28;20191;-36
2023/09/04 10:27:09;;;;;;;0.30;0.30;;;24.90;59.40;;;25.30;43.64;96051.91;4991367;28;20267;-37